Time;durP1;ratioP1;P1;durP2;ratioP2;P2;SDS_P1;SDS_P2;PMS_P1;PMS_P2;Temp;Humidity;BMP_temperature;BMP_pressure;BME280_temperature;BME280_humidity;BME280_pressure;Samples;Min_cycle;Max_cycle;Signal;HPM_P1;HPM_P2
2022/11/22 00:00:24;;;;;;;85.10;29.83;;;;;;;-0.53;97.25;98212.44;8394207;28;20052;-76
2022/11/22 00:04:45;;;;;;;80.82;30.02;;;;;;;-0.57;97.81;98216.66;8430214;28;20051;-76
2022/11/22 00:08:47;;;;;;;69.57;28.17;;;;;;;-0.58;98.02;98215.06;8430095;28;20078;-76
2022/11/22 00:12:48;;;;;;;81.40;29.15;;;;;;;-0.58;98.39;98215.06;8429793;28;20048;-76
2022/11/22 00:16:49;;;;;;;87.43;29.80;;;;;;;-0.61;98.72;98215.59;8411693;28;20464;-76
2022/11/22 00:20:50;;;;;;;80.38;29.98;;;;;;;-0.60;98.52;98195.97;8429182;28;20386;-75
2022/11/22 00:24:51;;;;;;;76.93;27.23;;;;;;;-0.56;98.76;98190.94;8429063;28;20052;-76
2022/11/22 00:28:52;;;;;;;75.55;26.85;;;;;;;-0.49;98.39;98180.91;8428644;28;20065;-76
2022/11/22 00:32:53;;;;;;;79.30;27.73;;;;;;;-0.45;98.05;98182.78;8376225;28;20131;-76
2022/11/22 00:36:54;;;;;;;71.70;29.17;;;;;;;-0.50;98.75;98185.41;8428954;28;20048;-76
2022/11/22 00:40:55;;;;;;;78.78;30.00;;;;;;;-0.46;98.81;98191.78;8428551;28;20143;-76
2022/11/22 00:44:56;;;;;;;78.28;27.13;;;;;;;-0.49;99.18;98181.69;8428671;28;20063;-75
2022/11/22 00:48:57;;;;;;;79.60;27.50;;;;;;;-0.54;99.41;98189.63;8428940;28;20113;-76
2022/11/22 00:52:58;;;;;;;76.05;27.60;;;;;;;-0.55;99.98;98181.94;8375661;28;20044;-75
2022/11/22 00:56:59;;;;;;;76.03;28.00;;;;;;;-0.56;100.00;98167.88;8428038;28;20448;-75
2022/11/22 01:01:00;;;;;;;71.03;25.70;;;;;;;-0.53;99.91;98163.91;8426695;28;20043;-76
2022/11/22 01:05:01;;;;;;;65.47;26.58;;;;;;;-0.56;99.80;98164.41;8427545;28;20134;-75
2022/11/22 01:09:02;;;;;;;72.43;28.00;;;;;;;-0.54;100.00;98168.41;8376411;28;20093;-76
2022/11/22 01:13:04;;;;;;;70.45;28.13;;;;;;;-0.59;100.00;98160.44;8427152;28;20044;-75
2022/11/22 01:17:05;;;;;;;66.18;26.40;;;;;;;-0.57;100.00;98158.31;8391154;28;20063;-76
2022/11/22 01:21:06;;;;;;;75.90;29.00;;;;;;;-0.57;100.00;98158.31;8427121;28;20436;-75
2022/11/22 01:25:07;;;;;;;73.80;27.40;;;;;;;-0.62;100.00;98160.94;8421698;28;20040;-76
2022/11/22 01:29:08;;;;;;;73.72;28.38;;;;;;;-0.58;100.00;98156.72;8408991;28;20052;-76
2022/11/22 01:33:10;;;;;;;75.03;28.77;;;;;;;-0.58;100.00;98156.72;8427199;28;20098;-76
2022/11/22 01:37:10;;;;;;;84.53;30.95;;;;;;;-0.53;100.00;98154.09;8379459;28;20410;-76
2022/11/22 01:41:12;;;;;;;77.30;30.75;;;;;;;-0.46;100.00;98157.31;8427511;28;20518;-75
2022/11/22 01:45:35;;;;;;;75.95;29.73;;;;;;;-0.47;100.00;98146.94;8426369;28;20509;-75
2022/11/22 01:49:41;;;;;;;79.25;29.65;;;;;;;-0.47;100.00;98147.75;8253409;28;20097;-76
2022/11/22 01:53:41;;;;;;;79.75;30.00;;;;;;;-0.42;100.00;98139.81;8257746;28;20056;-76
2022/11/22 01:57:43;;;;;;;71.65;28.85;;;;;;;-0.52;100.00;98133.66;8257810;28;20077;-76
2022/11/22 02:01:44;;;;;;;72.03;29.83;;;;;;;-0.63;100.00;98138.13;8257168;28;20053;-76
2022/11/22 02:05:45;;;;;;;76.00;30.63;;;;;;;-0.69;100.00;98144.50;8257885;28;20113;-76
2022/11/22 02:09:47;;;;;;;76.22;28.08;;;;;;;-0.72;100.00;98150.31;8241615;28;20050;-75
2022/11/22 02:13:50;;;;;;;88.38;31.02;;;;;;;-0.72;100.00;98139.69;8257019;28;20583;-76
2022/11/22 02:17:51;;;;;;;78.88;30.85;;;;;;;-0.72;100.00;98150.31;8257299;28;20054;-76
2022/11/22 02:21:54;;;;;;;74.70;27.05;;;;;;;-0.76;100.00;98141.28;8225003;28;20089;-75
2022/11/22 02:25:57;;;;;;;68.22;27.35;;;;;;;-0.72;100.00;98145.00;8342752;28;20051;-76
2022/11/22 02:29:58;;;;;;;73.22;26.15;;;;;;;-0.81;100.00;98141.25;8426210;28;20028;-76
2022/11/22 02:33:58;;;;;;;68.32;25.77;;;;;;;-0.72;100.00;98139.69;8425284;28;20590;-75
2022/11/22 02:38:12;;;;;;;67.63;26.23;;;;;;;-0.74;100.00;98141.81;8424472;28;20048;-76
2022/11/22 02:42:13;;;;;;;81.65;30.60;;;;;;;-0.71;100.00;98136.00;8423510;28;20084;-75
2022/11/22 02:46:19;;;;;;;74.68;28.27;;;;;;;-0.72;100.00;98123.78;8425620;28;20036;-76
2022/11/22 02:50:20;;;;;;;88.18;29.08;;;;;;;-0.78;100.00;98108.91;8425829;28;20048;-76
2022/11/22 02:54:21;;;;;;;69.78;26.98;;;;;;;-0.71;100.00;98117.44;8425299;28;20052;-75
2022/11/22 02:58:22;;;;;;;91.38;29.85;;;;;;;-0.68;100.00;98102.84;8407454;28;20055;-75
2022/11/22 03:02:23;;;;;;;75.90;27.48;;;;;;;-0.66;100.00;98106.84;8425867;28;20044;-75
2022/11/22 03:06:24;;;;;;;82.03;30.38;;;;;;;-0.70;100.00;98081.13;8389592;28;20547;-76
2022/11/22 03:10:25;;;;;;;78.97;28.27;;;;;;;-0.70;100.00;98079.28;8407162;28;20078;-76
2022/11/22 03:14:26;;;;;;;76.45;26.70;;;;;;;-0.71;100.00;98093.56;8425239;28;20052;-76
2022/11/22 03:18:27;;;;;;;69.35;26.67;;;;;;;-0.71;100.00;98088.28;8424214;28;20040;-76
2022/11/22 03:22:28;;;;;;;73.18;27.50;;;;;;;-0.67;100.00;98077.94;8426019;28;20440;-77
2022/11/22 03:26:29;;;;;;;68.70;22.55;;;;;;;-0.68;100.00;98082.44;8375698;28;20044;-75
2022/11/22 03:30:30;;;;;;;69.80;23.45;;;;;;;-0.64;100.00;98086.19;8430684;28;20071;-76
2022/11/22 03:34:31;;;;;;;69.78;23.60;;;;;;;-0.68;100.00;98074.50;8430598;28;20043;-76
2022/11/22 03:38:33;;;;;;;66.03;24.70;;;;;;;-0.70;100.00;98063.38;8377539;28;20496;-75
2022/11/22 03:42:34;;;;;;;66.53;24.25;;;;;;;-0.70;100.00;98052.75;8430415;28;20498;-76
2022/11/22 03:46:35;;;;;;;67.38;22.60;;;;;;;-0.64;100.00;98054.38;8394907;28;20144;-76
2022/11/22 03:50:36;;;;;;;72.97;23.95;;;;;;;-0.74;100.00;98056.97;8412848;28;20048;-76
2022/11/22 03:54:37;;;;;;;72.78;24.58;;;;;;;-0.74;100.00;98086.13;8424333;28;20463;-76
2022/11/22 03:58:38;;;;;;;74.80;24.88;;;;;;;-0.83;100.00;98085.03;8410390;28;20151;-76
2022/11/22 04:02:39;;;;;;;68.63;22.85;;;;;;;-0.84;100.00;98088.75;8430363;28;20048;-76
2022/11/22 04:06:40;;;;;;;69.80;24.08;;;;;;;-0.78;100.00;98081.59;8429339;28;20438;-76
2022/11/22 04:10:40;;;;;;;80.45;23.98;;;;;;;-0.75;100.00;98076.59;8430342;28;20059;-75
2022/11/22 04:19:01;;;;;;;73.50;24.52;;;;;;;-0.79;100.00;98070.22;8429144;28;20125;-76
2022/11/22 04:23:13;;;;;;;74.20;23.98;;;;;;;-0.77;100.00;98062.81;8411293;28;20097;-75
2022/11/22 04:27:14;;;;;;;74.43;24.67;;;;;;;-0.73;100.00;98058.56;8429088;28;20490;-76
2022/11/22 04:35:35;;;;;;;87.78;22.75;;;;;;;-0.84;100.00;98078.16;8412441;28;20051;-75
2022/11/22 04:39:37;;;;;;;77.53;23.10;;;;;;;-0.81;100.00;98056.44;8429903;28;20486;-75
2022/11/22 04:48:00;;;;;;;76.70;22.55;;;;;;;-0.72;100.00;98054.84;8429170;28;20066;-76
2022/11/22 04:56:21;;;;;;;63.45;20.52;;;;;;;-0.67;100.00;98031.00;8395777;28;20055;-76
2022/11/22 05:00:22;;;;;;;95.22;24.67;;;;;;;-0.63;100.00;98047.97;8429748;28;20071;-76
2022/11/22 05:04:23;;;;;;;78.80;23.75;;;;;;;-0.65;100.00;98039.50;8429672;28;20386;-75
2022/11/22 05:08:24;;;;;;;70.70;23.55;;;;;;;-0.65;100.00;98066.03;8428623;28;20040;-76
2022/11/22 05:12:25;;;;;;;70.10;22.65;;;;;;;-0.60;100.00;98041.38;8428794;28;20048;-76
2022/11/22 05:16:26;;;;;;;77.18;24.77;;;;;;;-0.57;100.00;98052.25;8427877;28;20143;-76
2022/11/22 05:20:27;;;;;;;98.25;25.65;;;;;;;-0.54;100.00;98046.44;8392119;28;20519;-76
2022/11/22 05:24:28;;;;;;;82.90;25.13;;;;;;;-0.54;100.00;98050.94;8407528;28;20051;-75
2022/11/22 05:28:30;;;;;;;105.38;28.67;;;;;;;-0.53;100.00;98048.00;8427672;28;20043;-77
2022/11/22 05:32:32;;;;;;;117.85;33.65;;;;;;;-0.49;100.00;98049.09;8397360;28;20533;-77
2022/11/22 05:36:33;;;;;;;113.65;33.40;;;;;;;-0.44;100.00;98041.13;8428418;28;20052;-77
2022/11/22 05:40:34;;;;;;;94.28;28.30;;;;;;;-0.43;100.00;98053.34;8415367;28;20135;-77
2022/11/22 05:44:37;;;;;;;102.63;27.98;;;;;;;-0.44;100.00;98072.97;8428130;28;20082;-77
2022/11/22 05:48:39;;;;;;;101.18;25.23;;;;;;;-0.44;100.00;98067.66;8385608;28;20146;-76
2022/11/22 05:52:40;;;;;;;102.68;27.02;;;;;;;-0.43;100.00;98079.88;8427827;28;20406;-77
2022/11/22 05:56:41;;;;;;;95.30;25.65;;;;;;;-0.38;100.00;98080.94;8427227;28;20044;-77
2022/11/22 06:00:42;;;;;;;78.82;24.13;;;;;;;-0.33;100.00;98072.97;8408101;28;20041;-77
2022/11/22 06:04:43;;;;;;;80.70;26.50;;;;;;;-0.34;100.00;98082.00;8421259;28;20425;-77
2022/11/22 06:08:46;;;;;;;101.55;29.58;;;;;;;-0.34;100.00;98072.19;8423052;28;20109;-77
2022/11/22 06:12:47;;;;;;;101.65;26.92;;;;;;;-0.34;100.00;98082.00;8427325;28;20097;-77
2022/11/22 06:16:49;;;;;;;78.95;23.85;;;;;;;-0.33;100.00;98088.91;8391849;28;20406;-77
2022/11/22 06:20:50;;;;;;;72.35;24.60;;;;;;;-0.31;100.00;98102.69;8425645;28;20100;-77
2022/11/22 06:24:51;;;;;;;87.70;23.65;;;;;;;-0.25;100.00;98083.06;8418736;28;20056;-78
2022/11/22 06:28:53;;;;;;;75.00;21.92;;;;;;;-0.24;100.00;98076.69;8426658;28;20607;-78
2022/11/22 06:32:56;;;;;;;86.38;24.15;;;;;;;-0.28;100.00;98097.66;8426909;28;20044;-77
2022/11/22 06:36:56;;;;;;;96.40;25.50;;;;;;;-0.26;100.00;98094.72;8391042;28;20059;-76
2022/11/22 06:41:01;;;;;;;91.35;28.50;;;;;;;-0.20;100.00;98093.69;8422117;28;20100;-77
2022/11/22 06:45:02;;;;;;;83.57;25.67;;;;;;;-0.15;100.00;98083.06;8421375;28;20051;-77
2022/11/22 06:49:04;;;;;;;69.95;22.27;;;;;;;-0.11;100.00;98086.81;8409473;28;20447;-76
2022/11/22 06:53:04;;;;;;;97.97;25.88;;;;;;;-0.11;100.00;98086.81;8413959;28;20048;-77
2022/11/22 06:57:05;;;;;;;88.28;25.02;;;;;;;-0.13;100.00;98100.34;8419459;28;20386;-77
2022/11/22 07:01:30;;;;;;;86.18;24.50;;;;;;;-0.07;100.00;98114.41;8430476;28;20135;-77
2022/11/22 07:05:31;;;;;;;91.60;23.42;;;;;;;-0.08;100.00;98123.44;8291242;28;20050;-77
2022/11/22 07:09:32;;;;;;;82.70;23.67;;;;;;;-0.14;100.00;98119.97;8296772;28;20212;-77
2022/11/22 07:13:33;;;;;;;82.82;24.05;;;;;;;-0.13;100.00;98095.03;8297212;28;20050;-76
2022/11/22 07:17:34;;;;;;;105.35;27.30;;;;;;;-0.07;100.00;98109.09;8297745;28;20049;-77
2022/11/22 07:21:38;;;;;;;87.97;26.10;;;;;;;-0.09;100.00;98111.22;8296337;28;20052;-77
2022/11/22 07:25:42;;;;;;;89.57;26.20;;;;;;;-0.05;100.00;98121.03;8296276;28;20050;-77
2022/11/22 07:29:44;;;;;;;78.35;25.40;;;;;;;0.03;100.00;98114.41;8296553;28;20050;-77
2022/11/22 07:33:45;;;;;;;90.18;27.30;;;;;;;0.04;100.00;98116.03;8295099;28;20049;-76
2022/11/22 07:37:46;;;;;;;86.00;24.05;;;;;;;0.07;100.00;98115.47;8296788;28;20153;-77
2022/11/22 07:41:47;;;;;;;88.78;25.48;;;;;;;0.04;100.00;98105.41;8348094;28;20044;-76
2022/11/22 07:45:48;;;;;;;80.43;24.02;;;;;;;0.10;100.00;98109.66;8351342;28;20411;-76
2022/11/22 07:49:49;;;;;;;71.20;23.80;;;;;;;0.04;100.00;98110.72;8397791;28;20053;-77
2022/11/22 07:53:50;;;;;;;87.22;23.90;;;;;;;0.01;100.00;98105.91;8398677;28;20078;-77
2022/11/22 07:57:58;;;;;;;72.90;23.85;;;;;;;0.10;100.00;98107.00;8398339;28;20061;-77
2022/11/22 08:01:59;;;;;;;91.55;24.33;;;;;;;0.21;100.00;98119.19;8347604;28;20048;-76
2022/11/22 08:06:01;;;;;;;74.68;24.30;;;;;;;0.15;100.00;98111.50;8396294;28;20127;-76
2022/11/22 08:10:03;;;;;;;66.97;22.35;;;;;;;0.17;100.00;98099.53;8404627;28;20132;-77
2022/11/22 08:14:04;;;;;;;85.25;24.08;;;;;;;0.26;100.00;98097.97;8386345;28;20053;-77
2022/11/22 08:18:05;;;;;;;68.25;23.00;;;;;;;0.26;100.00;98082.03;8364748;28;20059;-77
2022/11/22 08:22:06;;;;;;;76.15;23.08;;;;;;;0.40;100.00;98083.09;8396625;28;20045;-76
2022/11/22 08:26:11;;;;;;;62.53;22.70;;;;;;;0.41;100.00;98074.06;8352796;28;20044;-76
2022/11/22 08:30:12;;;;;;;70.68;22.88;;;;;;;0.43;100.00;98077.22;8389519;28;20053;-77
2022/11/22 08:34:13;;;;;;;68.25;23.65;;;;;;;0.49;100.00;98074.56;8392937;28;20494;-77
2022/11/22 08:38:14;;;;;;;75.93;25.02;;;;;;;0.48;100.00;98078.31;8399714;28;20098;-77
2022/11/22 08:42:15;;;;;;;58.50;22.27;;;;;;;0.57;100.00;98076.69;8432310;28;20069;-78
2022/11/22 08:46:16;;;;;;;68.40;24.15;;;;;;;0.62;100.00;98079.31;8431912;28;20043;-78
2022/11/22 08:50:18;;;;;;;64.03;22.42;;;;;;;0.66;100.00;98085.69;8421434;28;20044;-78
2022/11/22 08:54:18;;;;;;;74.88;23.50;;;;;;;0.65;100.00;98084.88;8421672;28;20455;-77
2022/11/22 08:58:20;;;;;;;80.65;24.60;;;;;;;0.66;100.00;98088.34;8426985;28;20410;-77
2022/11/22 09:02:21;;;;;;;63.28;22.55;;;;;;;0.75;100.00;98084.88;8421361;28;20086;-78
2022/11/22 09:06:23;;;;;;;79.47;27.00;;;;;;;0.81;100.00;98093.63;8440555;28;20489;-78
2022/11/22 09:10:24;;;;;;;69.10;27.55;;;;;;;0.78;100.00;98088.84;8432840;28;20071;-77
2022/11/22 09:14:25;;;;;;;73.47;25.75;;;;;;;0.83;100.00;98096.81;8428217;28;20063;-81
2022/11/22 09:18:26;;;;;;;79.57;27.63;;;;;;;0.93;100.00;98102.09;8419402;28;20064;-78
2022/11/22 09:22:27;;;;;;;88.32;29.10;;;;;;;1.04;100.00;98097.56;8428744;28;20048;-78
2022/11/22 09:26:30;;;;;;;158.85;49.58;;;;;;;1.12;100.00;98089.78;8412230;28;20052;-78
2022/11/22 09:30:31;;;;;;;99.88;35.75;;;;;;;1.18;100.00;98094.03;8393659;28;20089;-78
2022/11/22 09:34:32;;;;;;;102.70;36.95;;;;;;;1.21;100.00;98098.81;8411296;28;20636;-78
2022/11/22 09:38:34;;;;;;;87.85;33.13;;;;;;;1.28;100.00;98109.16;8428188;28;20044;-78
2022/11/22 09:42:47;;;;;;;85.82;33.38;;;;;;;1.35;100.00;98098.22;8415691;28;20050;-78
2022/11/22 09:47:10;;;;;;;76.15;30.55;;;;;;;1.40;100.00;98100.84;8428900;28;20048;-77
2022/11/22 09:51:27;;;;;;;76.43;30.63;;;;;;;1.41;100.00;98097.13;8428714;28;20413;-78
2022/11/22 09:55:41;;;;;;;85.93;31.20;;;;;;;1.39;100.00;98109.91;8358339;28;20084;-78
2022/11/22 09:59:45;;;;;;;84.43;31.73;;;;;;;1.42;100.00;98093.41;8341532;28;20546;-77
2022/11/22 10:04:02;;;;;;;80.63;31.13;;;;;;;1.53;100.00;98094.94;8345431;28;20044;-77
2022/11/22 10:08:22;;;;;;;79.32;29.02;;;;;;;1.46;100.00;98094.44;8357554;28;20067;-77
2022/11/22 10:12:48;;;;;;;78.47;30.58;;;;;;;1.46;100.00;98094.44;8357420;28;20079;-75
2022/11/22 10:17:21;;;;;;;71.72;29.35;;;;;;;1.50;100.00;98090.16;8357063;28;20533;-75
2022/11/22 10:21:23;;;;;;;75.50;29.17;;;;;;;1.57;100.00;98085.34;8258903;28;20042;-75
2022/11/22 10:25:31;;;;;;;75.78;30.23;;;;;;;1.56;100.00;98073.09;8256274;28;20534;-75
2022/11/22 10:29:59;;;;;;;73.45;28.50;;;;;;;1.55;100.00;98071.50;8291659;28;20050;-75
2022/11/22 10:34:18;;;;;;;69.43;28.48;;;;;;;1.55;100.00;98071.50;8225925;28;20173;-74
2022/11/22 10:38:28;;;;;;;80.93;31.77;;;;;;;1.64;100.00;98069.84;8210061;28;20163;-75
2022/11/22 10:42:53;;;;;;;77.93;31.42;;;;;;;1.69;100.00;98061.84;8218025;28;20394;-75
2022/11/22 10:46:57;;;;;;;86.72;31.85;;;;;;;1.71;100.00;98065.00;8226406;28;20090;-75
2022/11/22 10:51:04;;;;;;;83.43;31.25;;;;;;;1.85;100.00;98073.97;8226298;28;20074;-75
2022/11/22 10:55:34;;;;;;;81.03;34.80;;;;;;;1.96;100.00;98072.03;8210081;28;20523;-75
2022/11/22 10:59:46;;;;;;;74.43;29.85;;;;;;;2.04;100.00;98068.78;8284016;28;20061;-75
2022/11/22 11:03:53;;;;;;;78.65;31.85;;;;;;;2.03;100.00;98073.31;8279816;28;20046;-75
2022/11/22 11:07:54;;;;;;;87.60;33.60;;;;;;;2.06;100.00;98067.41;8274280;28;20046;-74
2022/11/22 11:11:56;;;;;;;88.45;34.85;;;;;;;2.03;100.00;98067.97;8390675;28;20075;-75
2022/11/22 11:15:58;;;;;;;86.57;33.75;;;;;;;2.15;100.00;98064.97;8393184;28;20525;-74
2022/11/22 11:20:04;;;;;;;82.15;34.63;;;;;;;2.07;100.00;98069.00;8377518;28;20502;-74
2022/11/22 11:24:13;;;;;;;85.75;34.65;;;;;;;2.09;100.00;98072.19;8365451;28;20064;-75
2022/11/22 11:28:26;;;;;;;84.28;34.10;;;;;;;2.09;100.00;98072.19;8393530;28;20102;-74
2022/11/22 11:32:27;;;;;;;87.40;34.83;;;;;;;2.09;100.00;98061.53;8393042;28;20040;-74
2022/11/22 11:36:28;;;;;;;82.13;35.08;;;;;;;2.11;100.00;98059.38;8390430;28;20076;-75
2022/11/22 11:40:31;;;;;;;108.10;42.10;;;;;;;2.07;100.00;98057.56;8409279;28;20062;-75
2022/11/22 11:44:38;;;;;;;110.43;42.42;;;;;;;2.04;100.00;98068.78;8375895;28;20048;-74
2022/11/22 11:48:45;;;;;;;111.57;42.10;;;;;;;2.06;100.00;98071.97;8390418;28;20036;-75
2022/11/22 11:52:53;;;;;;;111.00;43.67;;;;;;;2.20;100.00;98072.13;8356346;28;20114;-75
2022/11/22 11:57:13;;;;;;;104.75;40.22;;;;;;;2.20;100.00;98077.44;8386034;28;20044;-75
2022/11/22 12:01:18;;;;;;;110.05;40.22;;;;;;;2.26;100.00;98076.31;8385572;28;20520;-75
2022/11/22 12:05:19;;;;;;;105.22;40.38;;;;;;;2.23;100.00;98076.88;8430951;28;20442;-75
2022/11/22 12:09:33;;;;;;;105.85;42.50;;;;;;;2.32;100.00;98064.56;8431648;28;20048;-75
2022/11/22 12:13:48;;;;;;;105.47;42.00;;;;;;;2.43;100.00;98060.72;8431175;28;20048;-75
2022/11/22 12:17:54;;;;;;;99.18;40.17;;;;;;;2.47;100.00;98056.41;8410220;28;20048;-74
2022/11/22 12:22:46;;;;;;;98.82;40.88;;;;;;;2.57;100.00;98056.31;8394561;28;20040;-74
2022/11/22 12:26:47;;;;;;;162.68;59.05;;;;;;;2.60;100.00;98049.63;8278060;28;20053;-73
2022/11/22 12:30:54;;;;;;;98.63;39.22;;;;;;;2.66;100.00;98043.94;8287146;28;20049;-75
2022/11/22 12:35:18;;;;;;;104.13;41.63;;;;;;;2.72;100.00;98048.16;8280718;28;20054;-76
2022/11/22 12:39:23;;;;;;;150.63;57.15;;;;;;;2.81;100.00;98041.13;8271364;28;20049;-75
2022/11/22 12:43:44;;;;;;;126.95;48.70;;;;;;;2.87;100.00;98047.97;8280353;28;20046;-76
2022/11/22 12:47:46;;;;;;;102.07;41.08;;;;;;;2.85;100.00;98047.50;8280308;28;20045;-75
2022/11/22 12:51:59;;;;;;;98.70;40.40;;;;;;;2.83;100.00;98046.97;8296448;28;20050;-75
2022/11/22 12:56:30;;;;;;;123.07;44.63;;;;;;;2.89;100.00;98059.19;8295798;28;20046;-75
2022/11/22 13:00:36;;;;;;;118.82;45.65;;;;;;;2.89;100.00;98037.84;8322505;28;20131;-75
2022/11/22 13:04:57;;;;;;;124.80;46.80;;;;;;;2.94;100.00;98051.13;8406149;28;20056;-76
2022/11/22 13:09:02;;;;;;;125.47;48.67;;;;;;;2.91;100.00;98051.66;8318709;28;20052;-75
2022/11/22 13:13:10;;;;;;;126.85;46.55;;;;;;;2.89;100.00;98043.16;8309748;28;20051;-75
2022/11/22 13:17:14;;;;;;;113.90;43.28;;;;;;;2.88;100.00;98036.25;8277954;28;20060;-75
2022/11/22 13:21:25;;;;;;;109.82;40.17;;;;;;;2.85;100.00;98036.03;8308599;28;20049;-75
2022/11/22 13:25:44;;;;;;;108.28;41.28;;;;;;;2.81;100.00;98035.78;8321728;28;20108;-75
2022/11/22 13:29:44;;;;;;;;;;;;;;;2.78;100.00;98036.38;8326511;28;20049;-77
2022/11/22 13:33:57;;;;;;;107.10;40.42;;;;;;;2.76;100.00;98021.72;8315614;28;20394;-76
2022/11/22 13:38:04;;;;;;;111.50;40.85;;;;;;;2.78;100.00;98017.69;8303599;28;20148;-75
2022/11/22 13:42:06;;;;;;;105.53;41.95;;;;;;;2.77;100.00;98024.09;8352890;28;20112;-76
2022/11/22 13:47:05;;;;;;;105.80;41.00;;;;;;;2.75;100.00;98028.91;8415457;28;20514;-76
2022/11/22 13:51:08;;;;;;;123.13;45.30;;;;;;;2.74;100.00;98011.34;8319853;28;20060;-76
2022/11/22 13:55:30;;;;;;;108.65;44.13;;;;;;;2.71;100.00;98019.91;8320441;28;20790;-77
2022/11/22 13:59:31;;;;;;;108.95;43.25;;;;;;;2.73;100.00;98028.44;8315347;28;20038;-74
2022/11/22 14:03:39;;;;;;;109.95;42.35;;;;;;;2.70;100.00;98034.31;8322184;28;20065;-76
2022/11/22 14:07:41;;;;;;;108.10;40.70;;;;;;;2.69;100.00;98019.41;8306204;28;20054;-78
2022/11/22 14:11:51;;;;;;;103.97;41.03;;;;;;;2.69;100.00;98022.06;8297950;28;20060;-76
2022/11/22 14:16:04;;;;;;;104.53;39.50;;;;;;;2.67;100.00;98018.88;8321903;28;20416;-75
2022/11/22 14:20:07;;;;;;;101.22;38.78;;;;;;;2.65;100.00;98015.69;8327141;28;20044;-75
2022/11/22 14:24:34;;;;;;;107.18;39.90;;;;;;;2.65;100.00;98018.38;8417206;28;20032;-76
2022/11/22 14:28:50;;;;;;;100.80;40.05;;;;;;;2.67;100.00;98018.88;8413581;28;20057;-76
2022/11/22 14:33:04;;;;;;;98.80;38.60;;;;;;;2.68;100.00;98020.47;8420530;28;20044;-75
2022/11/22 14:37:14;;;;;;;106.38;38.58;;;;;;;2.69;100.00;98011.41;8387960;28;20044;-75
2022/11/22 14:41:28;;;;;;;98.55;40.10;;;;;;;2.70;100.00;98009.50;8418333;28;20056;-76
2022/11/22 14:46:11;;;;;;;103.47;41.67;;;;;;;2.72;100.00;98015.38;8424623;28;20410;-75
2022/11/22 14:50:25;;;;;;;108.95;40.55;;;;;;;2.75;100.00;98015.59;8288898;28;20135;-75
2022/11/22 14:54:42;;;;;;;102.40;39.83;;;;;;;2.74;100.00;98016.69;8289869;28;20477;-74
2022/11/22 14:59:01;;;;;;;101.50;39.85;;;;;;;2.78;100.00;98020.38;8267890;28;20049;-75
2022/11/22 15:03:38;;;;;;;99.30;39.42;;;;;;;2.82;100.00;98021.38;8289112;28;20065;-76
2022/11/22 15:08:01;;;;;;;100.78;38.33;;;;;;;2.85;100.00;98025.38;8288832;28;20050;-77
2022/11/22 15:12:05;;;;;;;98.75;39.17;;;;;;;2.85;100.00;98026.16;8285277;28;20066;-76
2022/11/22 15:16:15;;;;;;;102.53;39.72;;;;;;;2.89;100.00;98032.50;8272691;28;20072;-76
2022/11/22 15:20:32;;;;;;;100.63;41.13;;;;;;;2.93;100.00;98028.19;8292665;28;20137;-76
2022/11/22 15:24:34;;;;;;;97.72;41.40;;;;;;;2.97;100.00;98029.19;8387209;28;20044;-76
2022/11/22 15:28:45;;;;;;;95.30;38.28;;;;;;;2.98;100.00;98030.78;8426159;28;20458;-76
2022/11/22 15:32:50;;;;;;;94.45;38.65;;;;;;;3.00;100.00;98037.72;8416629;28;20053;-76
2022/11/22 15:37:13;;;;;;;100.65;41.83;;;;;;;3.03;100.00;98034.47;8419379;28;20097;-78
2022/11/22 15:41:19;;;;;;;100.80;39.55;;;;;;;3.02;100.00;98035.53;8421499;28;20128;-78
2022/11/22 15:45:21;;;;;;;125.28;48.75;;;;;;;3.04;100.00;98038.72;8318829;28;20416;-78
2022/11/22 15:49:23;;;;;;;97.75;42.47;;;;;;;3.05;100.00;98035.00;8328435;28;20382;-77
2022/11/22 15:53:26;;;;;;;93.13;39.13;;;;;;;3.07;100.00;98033.59;8311159;28;20060;-77
2022/11/22 15:57:34;;;;;;;100.25;41.42;;;;;;;3.09;100.00;98041.34;8325108;28;20123;-78
2022/11/22 16:01:39;;;;;;;93.32;40.50;;;;;;;3.10;100.00;98037.59;8331210;28;20068;-78
2022/11/22 16:05:40;;;;;;;105.00;41.92;;;;;;;3.10;100.00;98037.59;8327086;28;20150;-78
2022/11/22 16:09:42;;;;;;;94.57;40.58;;;;;;;3.11;100.00;98039.19;8284830;28;20049;-77
2022/11/22 16:13:43;;;;;;;86.63;37.65;;;;;;;3.12;100.00;98048.78;8331316;28;20045;-77
2022/11/22 16:18:12;;;;;;;95.78;40.92;;;;;;;3.15;100.00;98050.88;8368842;28;20055;-78
2022/11/22 16:22:30;;;;;;;86.60;37.58;;;;;;;3.13;100.00;98053.00;8263115;28;20383;-78
2022/11/22 16:26:31;;;;;;;89.90;39.45;;;;;;;3.14;100.00;98054.59;8245970;28;20450;-78
2022/11/22 16:30:44;;;;;;;89.93;37.13;;;;;;;3.15;100.00;98061.53;8262019;28;20057;-77
2022/11/22 16:34:46;;;;;;;90.70;38.83;;;;;;;3.14;100.00;98049.28;8262127;28;20478;-78
2022/11/22 16:38:48;;;;;;;89.00;38.70;;;;;;;3.13;100.00;98063.69;8260799;28;20505;-78
2022/11/22 16:42:49;;;;;;;88.63;39.20;;;;;;;3.14;100.00;98059.94;8258405;28;20487;-77
2022/11/22 16:46:50;;;;;;;87.22;39.88;;;;;;;3.16;100.00;98057.78;8255840;28;20042;-75
2022/11/22 16:50:56;;;;;;;89.03;38.40;;;;;;;3.15;100.00;98066.88;8226423;28;20557;-75
2022/11/22 16:54:58;;;;;;;92.20;39.63;;;;;;;3.16;100.00;98068.47;8260114;28;20064;-76
2022/11/22 16:58:59;;;;;;;112.88;47.45;;;;;;;3.14;100.00;98070.63;8323997;28;20455;-76
2022/11/22 17:03:00;;;;;;;128.35;51.50;;;;;;;3.10;100.00;98074.94;8342119;28;20544;-75
2022/11/22 17:07:01;;;;;;;120.50;49.17;;;;;;;3.10;100.00;98074.94;8353361;28;20045;-75
2022/11/22 17:11:03;;;;;;;155.68;56.72;;;;;;;3.08;100.00;98066.41;8356877;28;20049;-76
2022/11/22 17:15:04;;;;;;;122.38;49.35;;;;;;;3.03;100.00;98075.28;8341676;28;20079;-75
2022/11/22 17:19:05;;;;;;;129.00;46.72;;;;;;;3.03;100.00;98079.81;8342504;28;20171;-76
2022/11/22 17:23:11;;;;;;;109.03;44.85;;;;;;;3.00;100.00;98075.06;8360792;28;20041;-79
2022/11/22 17:27:13;;;;;;;112.75;46.47;;;;;;;3.02;100.00;98083.56;8357053;28;20041;-81
2022/11/22 17:31:15;;;;;;;108.38;45.70;;;;;;;2.98;100.00;98086.81;8361097;28;20041;-77
2022/11/22 17:35:17;;;;;;;111.55;47.42;;;;;;;3.00;100.00;98085.72;8360522;28;20418;-76
2022/11/22 17:39:18;;;;;;;103.07;43.88;;;;;;;2.96;100.00;98086.28;8378775;28;20136;-77
2022/11/22 17:43:19;;;;;;;100.78;43.03;;;;;;;2.93;100.00;98084.19;8397357;28;20052;-77
2022/11/22 17:47:20;;;;;;;94.32;42.90;;;;;;;2.92;100.00;98082.59;8427584;28;20048;-77
2022/11/22 17:51:21;;;;;;;91.68;42.60;;;;;;;2.91;100.00;98083.66;8415645;28;20057;-77
2022/11/22 17:55:22;;;;;;;142.00;50.53;;;;;;;2.90;100.00;98098.09;8427984;28;20139;-77
2022/11/22 17:59:23;;;;;;;195.65;64.72;;;;;;;2.90;100.00;98098.09;8371577;28;20044;-77
2022/11/22 18:03:24;;;;;;;145.05;54.60;;;;;;;2.89;100.00;98098.38;8427919;28;20044;-77
2022/11/22 18:07:28;;;;;;;151.23;55.95;;;;;;;2.87;100.00;98097.84;8415988;28;20044;-76
2022/11/22 18:11:29;;;;;;;125.32;49.60;;;;;;;2.86;100.00;98096.25;8427294;28;20052;-77
2022/11/22 18:15:30;;;;;;;117.82;50.08;;;;;;;2.87;100.00;98103.97;8374490;28;20052;-77
2022/11/22 18:19:31;;;;;;;116.55;50.25;;;;;;;2.87;100.00;98114.66;8427527;28;20078;-77
2022/11/22 18:23:34;;;;;;;114.10;51.10;;;;;;;2.86;100.00;98123.72;8427855;28;20062;-77
2022/11/22 18:27:35;;;;;;;111.45;48.63;;;;;;;2.86;100.00;98121.06;8426581;28;20048;-77
2022/11/22 18:31:36;;;;;;;113.05;48.17;;;;;;;2.86;100.00;98134.38;8427860;28;20123;-76
2022/11/22 18:35:37;;;;;;;104.75;47.63;;;;;;;2.87;100.00;98130.66;8427153;28;20047;-77
2022/11/22 18:39:39;;;;;;;111.43;48.17;;;;;;;2.87;100.00;98135.97;8365015;28;20520;-76
2022/11/22 18:43:40;;;;;;;105.15;46.22;;;;;;;2.86;100.00;98134.38;8421938;28;20089;-77
2022/11/22 18:47:41;;;;;;;109.15;49.60;;;;;;;2.88;100.00;98142.91;8400625;28;20529;-77
2022/11/22 18:51:42;;;;;;;130.20;58.90;;;;;;;2.90;100.00;98140.78;8385744;28;20044;-77
2022/11/22 18:55:43;;;;;;;135.80;57.28;;;;;;;2.91;100.00;98139.66;8419993;28;20074;-77